createdAt,value
2022-08-17T00:01:24.051Z,25.96
2022-08-17T00:06:31.582Z,26.21
2022-08-17T00:11:40.927Z,26.33
2022-08-17T00:16:56.765Z,25.30
2022-08-17T00:22:34.028Z,24.22
2022-08-17T00:27:26.248Z,23.52
2022-08-17T00:33:11.650Z,23.62
2022-08-17T00:37:52.672Z,25.05
2022-08-17T00:42:55.614Z,25.59
2022-08-17T00:47:58.433Z,25.84
2022-08-17T00:53:02.325Z,25.65
2022-08-17T00:58:06.298Z,24.45
2022-08-17T01:03:13.378Z,23.61
2022-08-17T01:08:19.831Z,23.55
2022-08-17T01:13:25.533Z,24.42
2022-08-17T01:18:28.539Z,24.71
2022-08-17T01:23:31.266Z,25.06
2022-08-17T01:28:54.621Z,25.45
2022-08-17T01:34:01.902Z,25.50
2022-08-17T01:39:15.370Z,24.38
2022-08-17T01:44:18.323Z,24.12
2022-08-17T01:49:21.117Z,24.98
2022-08-17T01:54:25.660Z,25.40
2022-08-17T01:59:28.646Z,25.15
2022-08-17T02:04:32.162Z,23.93
2022-08-17T02:09:34.882Z,23.75
2022-08-17T02:14:43.993Z,24.88
2022-08-17T02:19:46.696Z,25.10
2022-08-17T02:24:59.705Z,25.31
2022-08-17T02:30:58.966Z,25.54
2022-08-17T02:35:29.654Z,25.53
2022-08-17T02:40:36.253Z,24.36
2022-08-17T02:45:39.881Z,24.88
2022-08-17T02:50:42.833Z,25.49
2022-08-17T02:55:45.572Z,25.52
2022-08-17T03:00:48.758Z,25.40
2022-08-17T03:05:53.163Z,25.32
2022-08-17T03:10:56.389Z,25.23
2022-08-17T03:15:59.145Z,25.48
2022-08-17T03:21:04.494Z,25.81
2022-08-17T03:26:12.345Z,25.99
2022-08-17T03:31:18.521Z,25.83
2022-08-17T03:36:21.377Z,24.37
2022-08-17T03:41:24.161Z,23.92
2022-08-17T03:46:45.750Z,24.93
2022-08-17T03:52:07.710Z,25.28
2022-08-17T03:57:12.620Z,25.48
2022-08-17T04:02:25.854Z,25.76
2022-08-17T04:07:31.091Z,26.02
2022-08-17T04:12:53.189Z,25.95
2022-08-17T04:17:56.091Z,24.51
2022-08-17T04:23:11.419Z,24.33
2022-08-17T04:28:15.819Z,25.28
2022-08-17T04:33:24.090Z,25.64
2022-08-17T04:38:31.989Z,25.89
2022-08-17T04:43:36.635Z,26.09
2022-08-17T04:48:42.768Z,26.35
2022-08-17T04:53:54.165Z,26.57
2022-08-17T04:59:01.258Z,25.74
2022-08-17T05:04:33.475Z,25.35
2022-08-17T05:09:31.204Z,26.34
2022-08-17T05:14:34.067Z,26.92
2022-08-17T05:19:37.426Z,26.82
2022-08-17T05:24:50.433Z,25.93
2022-08-17T05:29:56.934Z,26.89
2022-08-17T05:35:00.603Z,27.67
2022-08-17T05:40:04.562Z,27.38
2022-08-17T05:45:08.725Z,27.16
2022-08-17T05:50:25.746Z,27.04
2022-08-17T05:55:43.314Z,27.12
2022-08-17T06:01:12.796Z,27.38
2022-08-17T06:06:25.124Z,28.59
2022-08-17T06:11:53.965Z,29.65
2022-08-17T06:17:12.621Z,29.91
2022-08-17T06:22:18.572Z,30.35
2022-08-17T06:27:41.727Z,30.89
2022-08-17T06:32:48.847Z,31.28
2022-08-17T06:38:09.910Z,31.74
2022-08-17T06:43:39.722Z,32.08
2022-08-17T06:49:11.733Z,32.42
2022-08-17T06:54:34.157Z,32.94
2022-08-17T06:59:59.711Z,33.33
2022-08-17T07:05:03.054Z,33.83
2022-08-17T07:10:09.639Z,34.39
2022-08-17T07:15:34.167Z,35.34
2022-08-17T07:20:38.124Z,36.18
2022-08-17T07:25:40.877Z,36.60
2022-08-17T07:30:51.502Z,37.28
2022-08-17T07:35:57.498Z,37.94
2022-08-17T07:41:05.296Z,38.49
2022-08-17T07:46:30.035Z,38.95
2022-08-17T07:51:43.421Z,39.68
2022-08-17T07:56:50.006Z,40.27
2022-08-17T08:01:59.182Z,40.72
2022-08-17T08:07:07.845Z,41.16
2022-08-17T08:12:40.252Z,41.63
2022-08-17T08:18:04.746Z,42.02
2022-08-17T08:23:37.210Z,42.44
2022-08-17T08:29:28.302Z,42.88
2022-08-17T08:35:04.284Z,43.39
2022-08-17T08:40:13.263Z,44.03
2022-08-17T08:45:28.905Z,44.43
2022-08-17T08:50:42.977Z,44.79
2022-08-17T08:55:49.352Z,45.17
2022-08-17T09:00:56.433Z,45.49
2022-08-17T09:06:32.005Z,45.77
2022-08-17T09:12:01.433Z,45.51
2022-08-17T09:17:21.899Z,45.72
2022-08-17T09:22:43.111Z,44.94
2022-08-17T09:28:05.582Z,42.86
2022-08-17T09:33:11.654Z,42.36
2022-08-17T09:38:39.644Z,43.10
2022-08-17T09:43:58.730Z,44.16
2022-08-17T09:49:39.774Z,45.38
2022-08-17T09:54:44.368Z,46.29
2022-08-17T09:59:53.251Z,47.35
2022-08-17T10:05:09.837Z,47.90
2022-08-17T10:10:29.846Z,47.46
2022-08-17T10:15:47.638Z,47.80
2022-08-17T10:21:25.134Z,47.45
2022-08-17T10:26:40.544Z,47.49
2022-08-17T10:32:04.285Z,47.66
2022-08-17T10:37:26.338Z,46.28
2022-08-17T10:42:51.589Z,43.80
2022-08-17T10:48:06.136Z,42.24
2022-08-17T10:53:09.839Z,43.15
2022-08-17T10:58:21.101Z,44.04
2022-08-17T11:03:25.766Z,45.17
2022-08-17T11:08:57.689Z,46.09
2022-08-17T11:14:13.903Z,47.15
2022-08-17T11:19:41.419Z,48.28
2022-08-17T11:24:48.244Z,48.98
2022-08-17T11:30:02.080Z,48.92
2022-08-17T11:35:43.357Z,49.13
2022-08-17T11:41:27.578Z,47.38
2022-08-17T11:46:57.929Z,44.44
2022-08-17T11:52:01.174Z,43.54
2022-08-17T11:57:26.018Z,44.44
2022-08-17T12:02:33.021Z,44.88
2022-08-17T12:07:43.236Z,44.34
2022-08-17T12:12:51.324Z,43.94
2022-08-17T12:17:56.731Z,45.25
2022-08-17T12:23:23.519Z,46.55
2022-08-17T12:28:33.084Z,47.66
2022-08-17T12:33:42.487Z,47.90
2022-08-17T12:39:14.481Z,45.96
2022-08-17T12:44:33.629Z,43.58
2022-08-17T12:49:39.572Z,41.71
2022-08-17T12:54:52.637Z,40.32
2022-08-17T12:59:59.473Z,38.94
2022-08-17T13:05:02.213Z,38.07
2022-08-17T13:10:05.681Z,37.60
2022-08-17T13:15:17.161Z,36.95
2022-08-17T13:20:19.958Z,36.53
2022-08-17T13:25:23.411Z,36.24
2022-08-17T13:30:32.905Z,36.53
2022-08-17T13:35:50.271Z,37.78
2022-08-17T13:40:53.707Z,37.72
2022-08-17T13:46:08.910Z,39.63
2022-08-17T13:51:22.585Z,39.87
2022-08-17T13:56:53.561Z,38.91
2022-08-17T14:01:56.504Z,38.38
2022-08-17T14:07:16.082Z,39.65
2022-08-17T14:12:25.074Z,41.76
2022-08-17T14:17:29.589Z,42.88
2022-08-17T14:22:36.337Z,41.98
2022-08-17T14:27:52.373Z,40.10
2022-08-17T14:32:58.187Z,38.58
2022-08-17T14:38:04.274Z,37.47
2022-08-17T14:43:07.108Z,36.68
2022-08-17T14:48:11.107Z,36.05
2022-08-17T14:53:16.370Z,35.57
2022-08-17T14:58:19.994Z,35.18
2022-08-17T15:03:23.641Z,34.73
2022-08-17T15:08:26.441Z,34.24
2022-08-17T15:13:29.760Z,33.88
2022-08-17T15:18:33.065Z,33.64
2022-08-17T15:23:36.975Z,33.50
2022-08-17T15:28:40.135Z,33.41
2022-08-17T15:33:43.096Z,33.32
2022-08-17T15:38:47.007Z,33.12
2022-08-17T15:43:52.859Z,33.16
2022-08-17T15:49:00.263Z,33.07
2022-08-17T15:54:19.120Z,32.89
2022-08-17T15:59:25.799Z,32.78
2022-08-17T16:04:30.704Z,32.75
2022-08-17T16:09:33.980Z,32.65
2022-08-17T16:14:37.073Z,32.62
2022-08-17T16:19:40.658Z,32.51
2022-08-17T16:24:56.828Z,32.27
2022-08-17T16:30:01.472Z,31.91
2022-08-17T16:35:07.209Z,31.60
2022-08-17T16:40:11.651Z,31.30
2022-08-17T16:45:18.575Z,30.91
2022-08-17T16:50:24.030Z,30.52
2022-08-17T16:55:26.909Z,30.16
2022-08-17T17:00:30.119Z,29.81
2022-08-17T17:05:35.941Z,29.50
2022-08-17T17:10:49.082Z,29.19
2022-08-17T17:16:21.684Z,28.91
2022-08-17T17:21:32.933Z,28.65
2022-08-17T17:26:57.575Z,28.42
2022-08-17T17:32:21.028Z,28.19
2022-08-17T17:37:32.876Z,27.94
2022-08-17T17:42:41.932Z,27.72
2022-08-17T17:47:45.742Z,27.51
2022-08-17T17:53:13.004Z,27.32
2022-08-17T17:58:32.600Z,27.12
2022-08-17T18:03:38.607Z,26.94
2022-08-17T18:09:19.603Z,26.79
2022-08-17T18:14:54.968Z,26.61
2022-08-17T18:19:57.883Z,26.44
2022-08-17T18:25:00.937Z,26.30
2022-08-17T18:30:12.904Z,26.17
2022-08-17T18:35:18.329Z,26.04
2022-08-17T18:40:21.812Z,25.93
2022-08-17T18:45:38.292Z,25.82
2022-08-17T18:50:41.578Z,25.72
2022-08-17T18:55:45.382Z,25.61
2022-08-17T19:00:50.435Z,25.51
2022-08-17T19:05:56.473Z,25.42
2022-08-17T19:11:08.899Z,25.32
2022-08-17T19:16:22.613Z,25.22
2022-08-17T19:21:56.406Z,25.12
2022-08-17T19:27:11.605Z,25.03
2022-08-17T19:32:20.588Z,24.93
2022-08-17T19:37:29.589Z,24.84
2022-08-17T19:42:47.825Z,24.75
2022-08-17T19:48:03.286Z,24.66
2022-08-17T19:53:18.653Z,24.59
2022-08-17T19:58:37.880Z,24.54
2022-08-17T20:04:05.799Z,24.47
2022-08-17T20:09:34.378Z,24.44
2022-08-17T20:15:03.234Z,24.42
2022-08-17T20:20:19.543Z,24.42
2022-08-17T20:25:59.307Z,24.41
2022-08-17T20:31:25.432Z,24.36
2022-08-17T20:36:36.847Z,24.23
2022-08-17T20:42:04.765Z,24.11
2022-08-17T20:47:17.245Z,23.97
2022-08-17T20:52:57.701Z,23.85
2022-08-17T20:58:15.471Z,23.71
2022-08-17T21:03:22.721Z,23.59
2022-08-17T21:08:53.465Z,23.47
2022-08-17T21:14:15.379Z,24.02
2022-08-17T21:19:23.760Z,25.13
2022-08-17T21:24:47.708Z,24.50
2022-08-17T21:30:11.838Z,23.88
2022-08-17T21:35:28.555Z,23.50
2022-08-17T21:40:33.463Z,23.81
2022-08-17T21:45:40.426Z,24.81
2022-08-17T21:50:46.381Z,24.23
2022-08-17T21:55:50.375Z,23.60
2022-08-17T22:01:11.944Z,24.27
2022-08-17T22:06:20.376Z,25.02
2022-08-17T22:11:23.098Z,24.20
2022-08-17T22:16:28.792Z,23.41
2022-08-17T22:21:32.390Z,23.54
2022-08-17T22:27:08.354Z,24.66
2022-08-17T22:32:11.528Z,24.03
2022-08-17T22:37:29.129Z,23.68
2022-08-17T22:42:47.260Z,24.60
2022-08-17T22:47:55.787Z,24.44
2022-08-17T22:53:22.951Z,23.35
2022-08-17T22:58:58.661Z,23.30
2022-08-17T23:04:06.059Z,24.37
2022-08-17T23:09:09.353Z,24.80
2022-08-17T23:14:13.869Z,24.17
2022-08-17T23:19:20.497Z,23.17
2022-08-17T23:24:27.402Z,23.05
2022-08-17T23:29:30.136Z,24.09
2022-08-17T23:34:33.312Z,24.75
2022-08-17T23:39:37.547Z,24.01
2022-08-17T23:44:43.674Z,23.04
2022-08-17T23:49:46.509Z,22.94
2022-08-17T23:54:49.439Z,24.35
2022-08-17T23:59:52.449Z,24.79
